• Join FlightAware (Why Join?)
  • Login
  • US Flag 
03:14PM EDT


 

Airport Tracker/Info


-or-


 

Live Flight TrackerFlight Track Log ✈ GGN7287 ✈ 20-Jun-2013 ✈ KSYR - CYYZ

Flight Track Log - Related Links

Times and Time Zones

All times are in EDT time to prevent confusion due to time zone crossing. See the GGN7287 flight status page for this flight to view local times or setup timezone preferences in your user account.

Time Position Orientation Groundspeed Altitude Reporting Facility
EDT Latitude Longitude Course Direction KTS MPH feet Rate Location/Type
03:34PM 43.1078 -76.1292 279° West 135 155 1,200  Level Boston Center
03:35PM 43.1175 -76.2150 279° West 173 199 3,600 1,560 Climbing Boston Center
03:37PM 43.1586 -76.3050 302° West 191 220 6,100 1,320 Climbing Cleveland Center
03:38PM 43.1858 -76.3658 302° West 191 220 7,300 1,260 Climbing Cleveland Center
03:39PM 43.2008 -76.4361 286° West 191 220 8,700 1,200 Climbing Cleveland Center
03:40PM 43.2097 -76.5067 280° West 191 220 9,800 1,080 Climbing Cleveland Center
03:41PM 43.2144 -76.5833 275° West 196 226 10,900 1,140 Climbing Cleveland Center
03:42PM 43.2169 -76.6572 273° West 196 226 12,100 1,080 Climbing Cleveland Center
03:43PM 43.2214 -76.7311 275° West 196 226 13,100 1,020 Climbing Cleveland Center
03:44PM 43.2219 -76.8108 271° West 196 226 14,200 1,080 Climbing Cleveland Center
03:45PM 43.2267 -76.8875 275° West 196 226 15,300 900 Climbing Cleveland Center
03:46PM 43.2311 -76.9642 275° West 201 231 16,000 360 Climbing Cleveland Center
03:47PM 43.2358 -77.0553 274° West 212 244 16,100  Climbing Cleveland Center
03:48PM 43.2386 -77.1433 273° West 231 266 16,100  Level Cleveland Center
03:49PM 43.2392 -77.2344 271° West 236 272 16,100 -60 Level Cleveland Center
03:50PM 43.2417 -77.3228 272° West 236 272 16,000  Descending Cleveland Center
03:51PM 43.2483 -77.4108 276° West 236 272 16,100  Climbing Cleveland Center
03:52PM 43.2508 -77.5019 272° West 236 272 16,100 -60 Level Cleveland Center
03:53PM 43.2531 -77.5903 272° West 236 272 16,000 -60 Descending Cleveland Center
03:54PM 43.2575 -77.6783 274° West 236 272 16,000  Level Cleveland Center
03:55PM 43.2617 -77.7667 274° West 236 272 16,000  Level Cleveland Center
03:56PM 43.2617 -77.8550 270° West 236 272 16,000  Level Cleveland Center
03:57PM 43.2658 -77.9461 274° West 236 272 16,100  Climbing Cleveland Center
03:58PM 43.2678 -78.0344 272° West 236 272 16,000 -60 Descending Cleveland Center
03:59PM 43.2697 -78.1228 272° West 231 266 16,000  Level Cleveland Center
04:00PM 43.2736 -78.2081 274° West 231 266 16,000  Level Cleveland Center
04:01PM 43.2775 -78.2992 273° West 231 266 16,000 -360 Level Cleveland Center
04:02PM 43.2794 -78.3933 272° West 237 273 15,300 -720 Descending Cleveland Center
04:03PM 43.2811 -78.4900 271° West 249 287 14,600 -600 Descending Cleveland Center
04:04PM 43.2853 -78.5983 273° West 254 292 14,100 -300 Descending Cleveland Center
04:05PM 43.2867 -78.6867 271° West 248 285 14,000 -360 Descending Cleveland Center
04:06PM 43.2903 -78.7808 273° West 248 285 13,400 -780 Descending Cleveland Center
04:07PM 43.2917 -78.8747 271° West 248 285 12,500 -840 Descending Cleveland Center
04:07PM 43.2833 -78.9000 246° West 260 299 12,200 -600 Descending Toronto Center